Time;durP1;ratioP1;P1;durP2;ratioP2;P2;SDS_P1;SDS_P2;PMS_P1;PMS_P2;Temp;Humidity;BMP_temperature;BMP_pressure;BME280_temperature;BME280_humidity;BME280_pressure;Samples;Min_cycle;Max_cycle;Signal;HPM_P1;HPM_P2
2022/06/18 00:01:53;;;;;;;;;;;;;;;-147.11;100.00;61570.13;5040589;28;19917;-58
2022/06/18 00:04:20;;;;;;;;;;;;;;;-147.11;100.00;61570.13;5033080;28;19985;-55
2022/06/18 00:06:50;;;;;;;;;;;;;;;-147.11;100.00;61570.13;5038494;28;19993;-56
2022/06/18 00:09:16;;;;;;;;;;;;;;;-147.11;100.00;61570.13;5044655;28;19940;-54
2022/06/18 00:14:26;;;;;;;;;;;;;;;-147.11;100.00;61570.13;5034851;28;19939;-57
2022/06/18 00:16:51;;;;;;;;;;;;;;;-147.11;100.00;61570.13;5038854;28;20456;-54
2022/06/18 00:19:16;;;;;;;;;;;;;;;-147.11;100.00;61570.13;5039032;28;19917;-54
2022/06/18 00:21:42;;;;;;;;;;;;;;;-147.11;100.00;61570.13;5044925;28;20353;-55
2022/06/18 00:24:18;;;;;;;;;;;;;;;-147.11;100.00;61570.13;5041450;28;19912;-56
2022/06/18 00:26:44;;;;;;;;;;;;;;;-147.11;100.00;61570.13;5039216;28;19921;-58
2022/06/18 00:29:11;;;;;;;;;;;;;;;-147.11;100.00;61570.13;5041927;28;19956;-56
2022/06/18 00:31:37;;;;;;;;;;;;;;;-147.11;100.00;61570.13;5043060;28;19917;-55
2022/06/18 00:34:02;;;;;;;;;;;;;;;-147.11;100.00;61570.13;5071128;28;19917;-53
2022/06/18 00:36:27;;;;;;;;;;;;;;;-147.11;100.00;61570.13;5039003;28;20004;-56
2022/06/18 00:38:53;;;;;;;;;;;;;;;-147.11;100.00;61570.13;5040275;28;19980;-51
2022/06/18 00:41:21;;;;;;;;;;;;;;;-147.11;100.00;61570.13;5040359;28;19923;-57
2022/06/18 00:43:58;;;;;;;;;;;;;;;-147.11;100.00;61570.13;5040529;28;19921;-57
2022/06/18 00:46:27;;;;;;;;;;;;;;;-147.11;100.00;61570.13;5041991;28;19944;-54
2022/06/18 00:48:58;;;;;;;;;;;;;;;-147.11;100.00;61570.13;5039390;28;19917;-54
2022/06/18 00:51:36;;;;;;;;;;;;;;;-147.11;100.00;61570.13;5035436;28;20023;-53
2022/06/18 00:54:06;;;;;;;;;;;;;;;-147.11;100.00;61570.13;5035732;28;19980;-56
2022/06/18 00:56:43;;;;;;;;;;;;;;;-147.11;100.00;61570.13;5037204;28;19925;-57
2022/06/18 00:59:27;;;;;;;;;;;;;;;-147.11;100.00;61570.13;5036764;28;20008;-57
2022/06/18 01:01:54;;;;;;;;;;;;;;;-147.11;100.00;61570.13;5033359;28;19925;-58
2022/06/18 01:04:32;;;;;;;;;;;;;;;-147.11;100.00;61570.13;5034290;28;19925;-54
2022/06/18 01:07:04;;;;;;;;;;;;;;;-147.11;100.00;61570.13;5042525;28;19952;-57
2022/06/18 01:09:30;;;;;;;;;;;;;;;-147.11;100.00;61570.13;5038126;28;19973;-56
2022/06/18 01:11:56;;;;;;;;;;;;;;;-147.11;100.00;61570.13;5036282;28;19952;-55
2022/06/18 01:14:23;;;;;;;;;;;;;;;-147.11;100.00;61570.13;5032317;28;19928;-57
2022/06/18 01:16:49;;;;;;;;;;;;;;;-147.11;100.00;61570.13;5034206;28;20285;-54
2022/06/18 01:19:23;;;;;;;;;;;;;;;-147.11;100.00;61570.13;5032774;28;19924;-54
2022/06/18 01:22:11;;;;;;;;;;;;;;;-147.11;100.00;61570.13;5036754;28;19916;-54
2022/06/18 01:24:38;;;;;;;;;;;;;;;-147.11;100.00;61570.13;5032934;28;19917;-55
2022/06/18 01:27:04;;;;;;;;;;;;;;;-147.11;100.00;61570.13;5037115;28;20292;-54
2022/06/18 01:29:29;;;;;;;;;;;;;;;-147.11;100.00;61570.13;5036358;28;20031;-56
2022/06/18 01:31:55;;;;;;;;;;;;;;;-147.11;100.00;61570.13;5036012;28;20404;-56
2022/06/18 01:34:20;;;;;;;;;;;;;;;-147.11;100.00;61570.13;5027440;28;19921;-53
2022/06/18 01:36:46;;;;;;;;;;;;;;;-147.11;100.00;61570.13;5032992;28;19916;-53
2022/06/18 01:39:13;;;;;;;;;;;;;;;-147.11;100.00;61570.13;5030761;28;19932;-59
2022/06/18 01:41:59;;;;;;;;;;;;;;;-147.11;100.00;61570.13;5035378;28;19975;-59
2022/06/18 01:44:28;;;;;;;;;;;;;;;-147.11;100.00;61570.13;5033937;28;19928;-56
2022/06/18 01:46:57;;;;;;;;;;;;;;;-147.11;100.00;61570.13;5032917;28;20539;-55
2022/06/18 01:49:25;;;;;;;;;;;;;;;-147.11;100.00;61570.13;5034011;28;19978;-56
2022/06/18 01:51:53;;;;;;;;;;;;;;;-147.11;100.00;61570.13;5036389;28;19959;-55
2022/06/18 01:54:21;;;;;;;;;;;;;;;-147.11;100.00;61570.13;5033486;28;21670;-57
2022/06/18 01:56:48;;;;;;;;;;;;;;;-147.11;100.00;61570.13;5029487;28;19936;-56
2022/06/18 01:59:19;;;;;;;;;;;;;;;-147.11;100.00;61570.13;5038327;28;19940;-53
2022/06/18 02:01:46;;;;;;;;;;;;;;;-147.11;100.00;61570.13;5034065;28;19913;-55
2022/06/18 02:04:12;;;;;;;;;;;;;;;-147.11;100.00;61570.13;5028369;28;19939;-53
2022/06/18 02:06:38;;;;;;;;;;;;;;;-147.11;100.00;61570.13;5031204;28;19916;-52
2022/06/18 02:09:06;;;;;;;;;;;;;;;-147.11;100.00;61570.13;5030426;28;19921;-52
2022/06/18 02:11:31;;;;;;;;;;;;;;;-147.11;100.00;61570.13;5026885;28;20044;-53
2022/06/18 02:14:00;;;;;;;;;;;;;;;-147.11;100.00;61570.13;5037446;28;19913;-57
2022/06/18 02:16:27;;;;;;;;;;;;;;;-147.11;100.00;61570.13;5031467;28;19913;-56
2022/06/18 02:18:53;;;;;;;;;;;;;;;-147.11;100.00;61570.13;5033526;28;20012;-53
2022/06/18 02:21:23;;;;;;;;;;;;;;;-147.11;100.00;61570.13;5031677;28;19951;-54
2022/06/18 02:23:51;;;;;;;;;;;;;;;-147.11;100.00;61570.13;5029592;28;19956;-53
2022/06/18 02:26:18;;;;;;;;;;;;;;;-147.11;100.00;61570.13;5030626;28;19913;-55
2022/06/18 02:28:43;;;;;;;;;;;;;;;-147.11;100.00;61570.13;5023674;28;19921;-53
2022/06/18 02:31:13;;;;;;;;;;;;;;;-147.11;100.00;61570.13;5025436;28;19959;-53
2022/06/18 02:33:38;;;;;;;;;;;;;;;-147.11;100.00;61570.13;5020236;28;22037;-52
2022/06/18 02:36:12;;;;;;;;;;;;;;;-147.11;100.00;61570.13;5023111;28;19927;-51
2022/06/18 02:38:37;;;;;;;;;;;;;;;-147.11;100.00;61570.13;5024204;28;19932;-52
2022/06/18 02:41:03;;;;;;;;;;;;;;;-147.11;100.00;61570.13;5023490;28;19913;-53
2022/06/18 02:43:28;;;;;;;;;;;;;;;-147.11;100.00;61570.13;5035692;28;19923;-51
2022/06/18 02:45:55;;;;;;;;;;;;;;;-147.11;100.00;61570.13;5021258;28;20008;-51
2022/06/18 02:48:24;;;;;;;;;;;;;;;-147.11;100.00;61570.13;5016935;28;19928;-52
2022/06/18 02:50:49;;;;;;;;;;;;;;;-147.11;100.00;61570.13;5017215;28;19908;-52
2022/06/18 02:53:14;;;;;;;;;;;;;;;-147.11;100.00;61570.13;5018805;28;20430;-53
2022/06/18 02:55:42;;;;;;;;;;;;;;;-147.11;100.00;61570.13;5021145;28;20011;-51
2022/06/18 02:58:34;;;;;;;;;;;;;;;-147.11;100.00;61570.13;5024431;28;19936;-53
2022/06/18 03:01:01;;;;;;;;;;;;;;;-147.11;100.00;61570.13;5023262;28;19912;-52
2022/06/18 03:03:28;;;;;;;;;;;;;;;-147.11;100.00;61570.13;5021637;28;19964;-52
2022/06/18 03:05:54;;;;;;;;;;;;;;;-147.11;100.00;61570.13;5025399;28;19916;-51
2022/06/18 03:08:23;;;;;;;;;;;;;;;-147.11;100.00;61570.13;5025670;28;19918;-51
2022/06/18 03:13:33;;;;;;;;;;;;;;;-147.11;100.00;61570.13;5021987;28;19931;-52
2022/06/18 03:15:58;;;;;;;;;;;;;;;-147.11;100.00;61570.13;5025329;28;19913;-52
2022/06/18 03:18:27;;;;;;;;;;;;;;;-147.11;100.00;61570.13;5026317;28;20388;-52
2022/06/18 03:21:13;;;;;;;;;;;;;;;-147.11;100.00;61570.13;5019605;28;20380;-52
2022/06/18 03:23:39;;;;;;;;;;;;;;;-147.11;100.00;61570.13;5023715;28;19925;-50
2022/06/18 03:26:04;;;;;;;;;;;;;;;-147.11;100.00;61570.13;5023848;28;19927;-53
2022/06/18 03:28:29;;;;;;;;;;;;;;;-147.11;100.00;61570.13;5022823;28;19995;-51
2022/06/18 03:30:55;;;;;;;;;;;;;;;-147.11;100.00;61570.13;5024419;28;20296;-51
2022/06/18 03:33:20;;;;;;;;;;;;;;;-147.11;100.00;61570.13;5025820;28;19920;-55
2022/06/18 03:35:47;;;;;;;;;;;;;;;-147.11;100.00;61570.13;5024594;28;19913;-50
2022/06/18 03:38:14;;;;;;;;;;;;;;;-147.11;100.00;61570.13;5023374;28;20050;-53
2022/06/18 03:40:39;;;;;;;;;;;;;;;-147.11;100.00;61570.13;5035652;28;19919;-51
2022/06/18 03:43:05;;;;;;;;;;;;;;;-147.11;100.00;61570.13;5025941;28;19925;-51
2022/06/18 03:45:35;;;;;;;;;;;;;;;-147.11;100.00;61570.13;5024582;28;20387;-52
2022/06/18 03:48:00;;;;;;;;;;;;;;;-147.11;100.00;61570.13;5026044;28;20004;-51
2022/06/18 03:50:26;;;;;;;;;;;;;;;-147.11;100.00;61570.13;5025828;28;19912;-51
2022/06/18 03:52:51;;;;;;;;;;;;;;;-147.11;100.00;61570.13;5028749;28;19913;-51
2022/06/18 03:55:17;;;;;;;;;;;;;;;-147.11;100.00;61570.13;5022390;28;19913;-50
2022/06/18 03:57:42;;;;;;;;;;;;;;;-147.11;100.00;61570.13;5036057;28;19963;-51
2022/06/18 04:00:10;;;;;;;;;;;;;;;-147.11;100.00;61570.13;5028827;28;19921;-52
2022/06/18 04:02:35;;;;;;;;;;;;;;;-147.11;100.00;61570.13;5027613;28;19916;-52
2022/06/18 04:05:00;;;;;;;;;;;;;;;-147.11;100.00;61570.13;5026456;28;19968;-52
2022/06/18 04:07:26;;;;;;;;;;;;;;;-147.11;100.00;61570.13;5022639;28;19920;-51
2022/06/18 04:09:53;;;;;;;;;;;;;;;-147.11;100.00;61570.13;5027246;28;19948;-53
2022/06/18 04:12:19;;;;;;;;;;;;;;;-147.11;100.00;61570.13;5026150;28;19913;-51
2022/06/18 04:14:44;;;;;;;;;;;;;;;-147.11;100.00;61570.13;5032899;28;19919;-51
2022/06/18 04:17:13;;;;;;;;;;;;;;;-147.11;100.00;61570.13;5026730;28;19920;-51
2022/06/18 04:19:39;;;;;;;;;;;;;;;-147.11;100.00;61570.13;5028730;28;19909;-51
2022/06/18 04:22:04;;;;;;;;;;;;;;;-147.11;100.00;61570.13;5030134;28;19963;-52
2022/06/18 04:24:30;;;;;;;;;;;;;;;-147.11;100.00;61570.13;5026419;28;20019;-54
2022/06/18 04:26:55;;;;;;;;;;;;;;;-147.11;100.00;61570.13;5026998;28;19927;-52
2022/06/18 04:29:21;;;;;;;;;;;;;;;-147.11;100.00;61570.13;5033998;28;19920;-51
2022/06/18 04:31:46;;;;;;;;;;;;;;;-147.11;100.00;61570.13;5025239;28;20004;-51
2022/06/18 04:34:11;;;;;;;;;;;;;;;-147.11;100.00;61570.13;5027219;28;19955;-51
2022/06/18 04:36:38;;;;;;;;;;;;;;;-147.11;100.00;61570.13;5026861;28;19938;-50
2022/06/18 04:39:03;;;;;;;;;;;;;;;-147.11;100.00;61570.13;5030486;28;20339;-51
2022/06/18 04:41:29;;;;;;;;;;;;;;;-147.11;100.00;61570.13;5026760;28;19917;-52
2022/06/18 04:43:55;;;;;;;;;;;;;;;-147.11;100.00;61570.13;5030950;28;19921;-50
2022/06/18 04:46:20;;;;;;;;;;;;;;;-147.11;100.00;61570.13;5030861;28;20297;-51
2022/06/18 04:48:45;;;;;;;;;;;;;;;-147.11;100.00;61570.13;5025426;28;20431;-51
2022/06/18 04:51:11;;;;;;;;;;;;;;;-147.11;100.00;61570.13;5020948;28;20380;-51
2022/06/18 04:53:36;;;;;;;;;;;;;;;-147.11;100.00;61570.13;5024854;28;19917;-52
2022/06/18 04:56:01;;;;;;;;;;;;;;;-147.11;100.00;61570.13;5026973;28;19920;-52
2022/06/18 04:58:27;;;;;;;;;;;;;;;-147.11;100.00;61570.13;5026710;28;19924;-52
2022/06/18 05:00:52;;;;;;;;;;;;;;;-147.11;100.00;61570.13;5019278;28;19932;-51
2022/06/18 05:03:20;;;;;;;;;;;;;;;-147.11;100.00;61570.13;5026705;28;19925;-51
2022/06/18 05:05:46;;;;;;;;;;;;;;;-147.11;100.00;61570.13;5028349;28;19924;-51
2022/06/18 05:08:11;;;;;;;;;;;;;;;-147.11;100.00;61570.13;5021813;28;19917;-55
2022/06/18 05:10:36;;;;;;;;;;;;;;;-147.11;100.00;61570.13;5020376;28;19937;-52
2022/06/18 05:13:02;;;;;;;;;;;;;;;-147.11;100.00;61570.13;5023826;28;20367;-51
2022/06/18 05:15:28;;;;;;;;;;;;;;;-147.11;100.00;61570.13;5035867;28;19917;-52
2022/06/18 05:17:53;;;;;;;;;;;;;;;-147.11;100.00;61570.13;5022999;28;19963;-52
2022/06/18 05:20:20;;;;;;;;;;;;;;;-147.11;100.00;61570.13;5026854;28;19913;-51
2022/06/18 05:22:46;;;;;;;;;;;;;;;-147.11;100.00;61570.13;5028005;28;19925;-53
2022/06/18 05:25:12;;;;;;;;;;;;;;;-147.11;100.00;61570.13;5029883;28;19913;-50
2022/06/18 05:27:38;;;;;;;;;;;;;;;-147.11;100.00;61570.13;5020321;28;20288;-53
2022/06/18 05:30:04;;;;;;;;;;;;;;;-147.11;100.00;61570.13;5024896;28;19921;-51
2022/06/18 05:32:29;;;;;;;;;;;;;;;-147.11;100.00;61570.13;5015142;28;19967;-55
2022/06/18 05:34:55;;;;;;;;;;;;;;;-147.11;100.00;61570.13;5026380;28;19967;-51
2022/06/18 05:37:22;;;;;;;;;;;;;;;-147.11;100.00;61570.13;5024646;28;20007;-51
2022/06/18 05:39:47;;;;;;;;;;;;;;;-147.11;100.00;61570.13;5024315;28;19913;-51
2022/06/18 05:42:13;;;;;;;;;;;;;;;-147.11;100.00;61570.13;5022314;28;20067;-51
2022/06/18 05:44:38;;;;;;;;;;;;;;;-147.11;100.00;61570.13;5022213;28;19932;-53
2022/06/18 05:47:14;;;;;;;;;;;;;;;-147.11;100.00;61570.13;5012325;28;20063;-50
2022/06/18 05:49:40;;;;;;;;;;;;;;;-147.11;100.00;61570.13;5023260;28;19917;-50
2022/06/18 05:52:05;;;;;;;;;;;;;;;-147.11;100.00;61570.13;5027735;28;19909;-50
2022/06/18 05:54:31;;;;;;;;;;;;;;;-147.11;100.00;61570.13;5030591;28;19924;-51
2022/06/18 05:56:56;;;;;;;;;;;;;;;-147.11;100.00;61570.13;5026287;28;19948;-51
2022/06/18 05:59:21;;;;;;;;;;;;;;;-147.11;100.00;61570.13;5024492;28;19926;-51
2022/06/18 06:01:46;;;;;;;;;;;;;;;-147.11;100.00;61570.13;5028037;28;19924;-51
2022/06/18 06:04:12;;;;;;;;;;;;;;;-147.11;100.00;61570.13;5026825;28;19925;-51
2022/06/18 06:06:37;;;;;;;;;;;;;;;-147.11;100.00;61570.13;5031225;28;19921;-51
2022/06/18 06:09:03;;;;;;;;;;;;;;;-147.11;100.00;61570.13;5025445;28;19921;-54
2022/06/18 06:11:28;;;;;;;;;;;;;;;-147.11;100.00;61570.13;5026625;28;19924;-51
2022/06/18 06:13:54;;;;;;;;;;;;;;;-147.11;100.00;61570.13;5027377;28;19927;-51
2022/06/18 06:16:20;;;;;;;;;;;;;;;-147.11;100.00;61570.13;5019727;28;19974;-53
2022/06/18 06:18:46;;;;;;;;;;;;;;;-147.11;100.00;61570.13;5022255;28;21086;-53
2022/06/18 06:21:11;;;;;;;;;;;;;;;-147.11;100.00;61570.13;5026044;28;19924;-50
2022/06/18 06:23:36;;;;;;;;;;;;;;;-147.11;100.00;61570.13;5013488;28;20009;-50
2022/06/18 06:26:02;;;;;;;;;;;;;;;-147.11;100.00;61570.13;5016074;28;19917;-53
2022/06/18 06:28:28;;;;;;;;;;;;;;;-147.11;100.00;61570.13;5023347;28;19960;-51
2022/06/18 06:30:54;;;;;;;;;;;;;;;-147.11;100.00;61570.13;5030316;28;20394;-51
2022/06/18 06:33:20;;;;;;;;;;;;;;;-147.11;100.00;61570.13;5030709;28;19917;-51
2022/06/18 06:35:46;;;;;;;;;;;;;;;-147.11;100.00;61570.13;5033695;28;19909;-51
2022/06/18 06:38:12;;;;;;;;;;;;;;;-147.11;100.00;61570.13;5027928;28;19944;-50
2022/06/18 06:40:39;;;;;;;;;;;;;;;-147.11;100.00;61570.13;5032243;28;20015;-52
2022/06/18 06:43:04;;;;;;;;;;;;;;;-147.11;100.00;61570.13;5029008;28;19971;-51
2022/06/18 06:45:33;;;;;;;;;;;;;;;-147.11;100.00;61570.13;5031820;28;19913;-50
2022/06/18 06:47:59;;;;;;;;;;;;;;;-147.11;100.00;61570.13;5022030;28;19914;-51
2022/06/18 06:50:25;;;;;;;;;;;;;;;-147.11;100.00;61570.13;5020534;28;19920;-51
2022/06/18 06:52:51;;;;;;;;;;;;;;;-147.11;100.00;61570.13;5027737;28;19916;-50
2022/06/18 06:58:00;;;;;;;;;;;;;;;-147.11;100.00;61570.13;5025931;28;19920;-51
2022/06/18 07:00:26;;;;;;;;;;;;;;;-147.11;100.00;61570.13;5027074;28;19947;-50
2022/06/18 07:02:51;;;;;;;;;;;;;;;-147.11;100.00;61570.13;5032667;28;20421;-51
2022/06/18 07:05:17;;;;;;;;;;;;;;;-147.11;100.00;61570.13;5031222;28;19998;-51
2022/06/18 07:07:42;;;;;;;;;;;;;;;-147.11;100.00;61570.13;5029545;28;19920;-51
2022/06/18 07:10:10;;;;;;;;;;;;;;;-147.11;100.00;61570.13;5039169;28;20360;-51
2022/06/18 07:12:35;;;;;;;;;;;;;;;-147.11;100.00;61570.13;5029119;28;19927;-51
2022/06/18 07:15:01;;;;;;;;;;;;;;;-147.11;100.00;61570.13;5034409;28;19913;-51
2022/06/18 07:17:28;;;;;;;;;;;;;;;-147.11;100.00;61570.13;5033027;28;20304;-51
2022/06/18 07:19:53;;;;;;;;;;;;;;;-147.11;100.00;61570.13;5038754;28;19924;-50
2022/06/18 07:22:18;;;;;;;;;;;;;;;-147.11;100.00;61570.13;5033798;28;19917;-51
2022/06/18 07:24:44;;;;;;;;;;;;;;;-147.11;100.00;61570.13;5031952;28;19963;-53
2022/06/18 07:27:09;;;;;;;;;;;;;;;-147.11;100.00;61570.13;5030923;28;19920;-52
2022/06/18 07:29:35;;;;;;;;;;;;;;;-147.11;100.00;61570.13;5031482;28;19932;-51
2022/06/18 07:32:04;;;;;;;;;;;;;;;-147.11;100.00;61570.13;5031338;28;19956;-51
2022/06/18 07:34:29;;;;;;;;;;;;;;;-147.11;100.00;61570.13;5032573;28;20011;-51
2022/06/18 07:36:55;;;;;;;;;;;;;;;-147.11;100.00;61570.13;5034553;28;20040;-50
2022/06/18 07:39:20;;;;;;;;;;;;;;;-147.11;100.00;61570.13;5033394;28;19921;-50
2022/06/18 07:41:48;;;;;;;;;;;;;;;-147.11;100.00;61570.13;5030866;28;19923;-52
2022/06/18 07:44:14;;;;;;;;;;;;;;;-147.11;100.00;61570.13;5031991;28;19960;-51
2022/06/18 07:46:39;;;;;;;;;;;;;;;-147.11;100.00;61570.13;5031910;28;20408;-53
2022/06/18 07:49:05;;;;;;;;;;;;;;;-147.11;100.00;61570.13;5035193;28;19917;-51
2022/06/18 07:51:30;;;;;;;;;;;;;;;-147.11;100.00;61570.13;5030166;28;19999;-54
2022/06/18 07:53:56;;;;;;;;;;;;;;;-147.11;100.00;61570.13;5034850;28;20024;-50
2022/06/18 07:56:22;;;;;;;;;;;;;;;-147.11;100.00;61570.13;5035103;28;19909;-51
2022/06/18 07:58:47;;;;;;;;;;;;;;;-147.11;100.00;61570.13;5031588;28;19940;-52
2022/06/18 08:01:12;;;;;;;;;;;;;;;-147.11;100.00;61570.13;5031966;28;20312;-51
2022/06/18 08:03:39;;;;;;;;;;;;;;;-147.11;100.00;61570.13;5030832;28;20335;-51
2022/06/18 08:06:05;;;;;;;;;;;;;;;-147.11;100.00;61570.13;5027585;28;19917;-53
2022/06/18 08:08:30;;;;;;;;;;;;;;;-147.11;100.00;61570.13;5035100;28;19920;-51
2022/06/18 08:10:56;;;;;;;;;;;;;;;-147.11;100.00;61570.13;5035409;28;19909;-51
2022/06/18 08:13:22;;;;;;;;;;;;;;;-147.11;100.00;61570.13;5030506;28;20293;-51
2022/06/18 08:15:48;;;;;;;;;;;;;;;-147.11;100.00;61570.13;5029349;28;19987;-52
2022/06/18 08:18:13;;;;;;;;;;;;;;;-147.11;100.00;61570.13;5034702;28;19956;-52
2022/06/18 08:20:38;;;;;;;;;;;;;;;-147.11;100.00;61570.13;5026278;28;19952;-52
2022/06/18 08:23:06;;;;;;;;;;;;;;;-147.11;100.00;61570.13;5036976;28;19913;-52
2022/06/18 08:25:32;;;;;;;;;;;;;;;-147.11;100.00;61570.13;5042163;28;19917;-51
2022/06/18 08:28:04;;;;;;;;;;;;;;;-147.11;100.00;61570.13;5045648;23;19936;-57
2022/06/18 08:30:32;;;;;;;;;;;;;;;-147.11;100.00;61570.13;5028179;28;20342;-62
2022/06/18 08:33:01;;;;;;;;;;;;;;;-147.11;100.00;61570.13;5025083;28;21160;-56
2022/06/18 08:35:26;;;;;;;;;;;;;;;-147.11;100.00;61570.13;5027113;28;19921;-57
2022/06/18 08:37:52;;;;;;;;;;;;;;;-147.11;100.00;61570.13;5024775;28;19988;-56
2022/06/18 08:40:37;;;;;;;;;;;;;;;-147.11;100.00;61570.13;5015447;28;19928;-60
2022/06/18 08:43:15;;;;;;;;;;;;;;;-147.11;100.00;61570.13;5012564;28;19969;-57
2022/06/18 08:45:44;;;;;;;;;;;;;;;-147.11;100.00;61570.13;5012319;28;20416;-61
2022/06/18 08:48:12;;;;;;;;;;;;;;;-147.11;100.00;61570.13;5009973;28;19910;-59
2022/06/18 08:50:41;;;;;;;;;;;;;;;-147.11;100.00;61570.13;5007657;28;20011;-56
2022/06/18 08:53:18;;;;;;;;;;;;;;;-147.11;100.00;61570.13;5006891;28;20364;-59
2022/06/18 08:55:44;;;;;;;;;;;;;;;-147.11;100.00;61570.13;5006737;28;19951;-57
2022/06/18 08:58:24;;;;;;;;;;;;;;;-147.11;100.00;61570.13;5013567;28;19953;-57
2022/06/18 09:01:00;;;;;;;;;;;;;;;-147.11;100.00;61570.13;5012448;28;19913;-58
2022/06/18 09:03:34;;;;;;;;;;;;;;;-147.11;100.00;61570.13;5014735;28;19925;-59
2022/06/18 09:06:02;;;;;;;;;;;;;;;-147.11;100.00;61570.13;5012226;28;20253;-57
2022/06/18 09:08:28;;;;;;;;;;;;;;;-147.11;100.00;61570.13;5011478;28;19991;-57
2022/06/18 09:10:53;;;;;;;;;;;;;;;-147.11;100.00;61570.13;5010991;28;20317;-58
2022/06/18 09:13:39;;;;;;;;;;;;;;;-147.11;100.00;61570.13;5014421;28;19913;-58
2022/06/18 09:16:06;;;;;;;;;;;;;;;-147.11;100.00;61570.13;5016962;28;19916;-56
2022/06/18 09:18:34;;;;;;;;;;;;;;;-147.11;100.00;61570.13;5015978;28;19925;-57
2022/06/18 09:21:01;;;;;;;;;;;;;;;-147.11;100.00;61570.13;5010627;28;19937;-56
2022/06/18 09:23:28;;;;;;;;;;;;;;;-147.11;100.00;61570.13;5006701;28;19928;-59
2022/06/18 09:25:54;;;;;;;;;;;;;;;-147.11;100.00;61570.13;5008676;28;20380;-61
2022/06/18 09:28:23;;;;;;;;;;;;;;;-147.11;100.00;61570.13;5010840;28;20346;-56
2022/06/18 09:30:52;;;;;;;;;;;;;;;-147.11;100.00;61570.13;5003348;28;20457;-62
2022/06/18 09:33:17;;;;;;;;;;;;;;;-147.11;100.00;61570.13;5011709;28;19921;-60
2022/06/18 09:35:48;;;;;;;;;;;;;;;-147.11;100.00;61570.13;5009390;28;19990;-57
2022/06/18 09:38:32;;;;;;;;;;;;;;;-147.11;100.00;61570.13;5012595;28;19913;-56
2022/06/18 09:41:03;;;;;;;;;;;;;;;-147.11;100.00;61570.13;5008223;28;19955;-56
2022/06/18 09:43:38;;;;;;;;;;;;;;;-147.11;100.00;61570.13;5010814;28;19959;-62
2022/06/18 09:46:06;;;;;;;;;;;;;;;-147.11;100.00;61570.13;5010710;28;19914;-55
2022/06/18 09:48:32;;;;;;;;;;;;;;;-147.11;100.00;61570.13;5016530;28;20373;-59
2022/06/18 09:50:58;;;;;;;;;;;;;;;-147.11;100.00;61570.13;5011538;28;19924;-60
2022/06/18 09:53:29;;;;;;;;;;;;;;;-147.11;100.00;61570.13;5008471;28;19956;-56
2022/06/18 09:55:57;;;;;;;;;;;;;;;-147.11;100.00;61570.13;5009736;28;19913;-57
2022/06/18 09:58:25;;;;;;;;;;;;;;;-147.11;100.00;61570.13;5011766;28;19913;-58
2022/06/18 10:00:52;;;;;;;;;;;;;;;-147.11;100.00;61570.13;5009276;28;19913;-57
2022/06/18 10:09:07;;;;;;;;;;;;;;;-147.11;100.00;61570.13;4989356;28;19964;-56
2022/06/18 10:11:32;;;;;;;;;;;;;;;-147.11;100.00;61570.13;5005346;28;19914;-56
2022/06/18 10:14:00;;;;;;;;;;;;;;;-147.11;100.00;61570.13;5006729;28;19926;-59
2022/06/18 10:16:29;;;;;;;;;;;;;;;-147.11;100.00;61570.13;5005719;28;20032;-54
2022/06/18 10:19:14;;;;;;;;;;;;;;;-147.11;100.00;61570.13;5012939;28;19968;-63
2022/06/18 10:21:50;;;;;;;;;;;;;;;-147.11;100.00;61570.13;5009885;28;19920;-56
2022/06/18 10:24:23;;;;;;;;;;;;;;;-147.11;100.00;61570.13;5013917;28;20016;-60
2022/06/18 10:26:55;;;;;;;;;;;;;;;-147.11;100.00;61570.13;5010890;28;19949;-59
2022/06/18 10:29:20;;;;;;;;;;;;;;;-147.11;100.00;61570.13;5010702;28;19913;-57
2022/06/18 10:31:49;;;;;;;;;;;;;;;-147.11;100.00;61570.13;5010838;28;19936;-57
2022/06/18 10:34:46;;;;;;;;;;;;;;;-147.11;100.00;61570.13;5006365;28;19913;-59
2022/06/18 10:37:12;;;;;;;;;;;;;;;-147.11;100.00;61570.13;4998869;28;19913;-57
2022/06/18 10:39:40;;;;;;;;;;;;;;;-147.11;100.00;61570.13;5013529;28;20395;-58
2022/06/18 10:42:24;;;;;;;;;;;;;;;-147.11;100.00;61570.13;5000533;28;19921;-57
2022/06/18 10:44:52;;;;;;;;;;;;;;;-147.11;100.00;61570.13;5010711;28;19910;-58
2022/06/18 10:47:18;;;;;;;;;;;;;;;-147.11;100.00;61570.13;5008726;28;19917;-53
2022/06/18 10:49:47;;;;;;;;;;;;;;;-147.11;100.00;61570.13;5011863;28;20365;-54
2022/06/18 10:52:17;;;;;;;;;;;;;;;-147.11;100.00;61570.13;5008912;28;20376;-56
2022/06/18 10:54:43;;;;;;;;;;;;;;;-147.11;100.00;61570.13;5005477;28;19949;-60
2022/06/18 10:57:20;;;;;;;;;;;;;;;-147.11;100.00;61570.13;5005053;28;20427;-59
2022/06/18 10:59:46;;;;;;;;;;;;;;;-147.11;100.00;61570.13;5003778;28;19917;-60
2022/06/18 11:02:12;;;;;;;;;;;;;;;-147.11;100.00;61570.13;5003966;28;19918;-59
2022/06/18 11:04:39;;;;;;;;;;;;;;;-147.11;100.00;61570.13;5007737;28;19913;-61
2022/06/18 11:07:06;;;;;;;;;;;;;;;-147.11;100.00;61570.13;5009072;28;19917;-59
2022/06/18 11:09:50;;;;;;;;;;;;;;;-147.11;100.00;61570.13;5008712;28;19994;-54
2022/06/18 11:12:20;;;;;;;;;;;;;;;-147.11;100.00;61570.13;5008270;28;20174;-60
2022/06/18 11:14:45;;;;;;;;;;;;;;;-147.11;100.00;61570.13;5010177;28;20004;-61
2022/06/18 11:17:22;;;;;;;;;;;;;;;-147.11;100.00;61570.13;5005867;28;19999;-59
2022/06/18 11:19:50;;;;;;;;;;;;;;;-147.11;100.00;61570.13;5006036;28;19913;-60
2022/06/18 11:22:22;;;;;;;;;;;;;;;-147.11;100.00;61570.13;5005065;28;19944;-58
2022/06/18 11:24:57;;;;;;;;;;;;;;;-147.11;100.00;61570.13;5011621;28;19913;-60
2022/06/18 11:27:23;;;;;;;;;;;;;;;-147.11;100.00;61570.13;5008395;28;19914;-60
2022/06/18 11:29:50;;;;;;;;;;;;;;;-147.11;100.00;61570.13;5006317;28;20000;-60
2022/06/18 11:32:15;;;;;;;;;;;;;;;-147.11;100.00;61570.13;5003044;28;19983;-59
2022/06/18 11:34:46;;;;;;;;;;;;;;;-147.11;100.00;61570.13;5002933;28;20344;-57
2022/06/18 11:37:22;;;;;;;;;;;;;;;-147.11;100.00;61570.13;5003941;28;20396;-59
2022/06/18 11:39:55;;;;;;;;;;;;;;;-147.11;100.00;61570.13;5008685;28;19917;-59
2022/06/18 11:42:26;;;;;;;;;;;;;;;-147.11;100.00;61570.13;5011193;28;20316;-60
2022/06/18 11:45:10;;;;;;;;;;;;;;;-147.11;100.00;61570.13;5011875;28;19913;-61
2022/06/18 11:47:39;;;;;;;;;;;;;;;-147.11;100.00;61570.13;5011767;28;19959;-57
2022/06/18 11:50:23;;;;;;;;;;;;;;;-147.11;100.00;61570.13;5003404;28;19932;-56
2022/06/18 11:52:54;;;;;;;;;;;;;;;-147.11;100.00;61570.13;5006628;28;19909;-55
2022/06/18 11:55:24;;;;;;;;;;;;;;;-147.11;100.00;61570.13;5010311;28;19920;-55
2022/06/18 11:57:59;;;;;;;;;;;;;;;-147.11;100.00;61570.13;5005246;28;20312;-57
2022/06/18 12:00:29;;;;;;;;;;;;;;;-147.11;100.00;61570.13;5012839;28;20016;-58
2022/06/18 12:02:54;;;;;;;;;;;;;;;-147.11;100.00;61570.13;5013969;28;20394;-54
2022/06/18 12:05:29;;;;;;;;;;;;;;;-147.11;100.00;61570.13;5014949;28;19963;-53
2022/06/18 12:07:57;;;;;;;;;;;;;;;-147.11;100.00;61570.13;5013764;28;19956;-58
2022/06/18 12:10:46;;;;;;;;;;;;;;;-147.11;100.00;61570.13;5009803;28;20335;-55
2022/06/18 12:13:24;;;;;;;;;;;;;;;-147.11;100.00;61570.13;5009967;28;19932;-54
2022/06/18 12:15:58;;;;;;;;;;;;;;;-147.11;100.00;61570.13;5005554;28;19909;-59
2022/06/18 12:18:36;;;;;;;;;;;;;;;-147.11;100.00;61570.13;5011601;28;19914;-53
2022/06/18 12:21:20;;;;;;;;;;;;;;;-147.11;100.00;61570.13;5013289;28;20375;-54
2022/06/18 12:23:45;;;;;;;;;;;;;;;-147.11;100.00;61570.13;5012235;28;19921;-54
2022/06/18 12:26:13;;;;;;;;;;;;;;;-147.11;100.00;61570.13;5013181;28;20439;-58
2022/06/18 12:28:39;;;;;;;;;;;;;;;-147.11;100.00;61570.13;5013455;28;20405;-60
2022/06/18 12:31:10;;;;;;;;;;;;;;;-147.11;100.00;61570.13;5008518;28;19913;-54
2022/06/18 12:33:53;;;;;;;;;;;;;;;-147.11;100.00;61570.13;5006538;28;19917;-59
2022/06/18 12:36:23;;;;;;;;;;;;;;;-147.11;100.00;61570.13;5009652;28;20368;-54
2022/06/18 12:38:48;;;;;;;;;;;;;;;-147.11;100.00;61570.13;5004620;28;19920;-58